Time;durP1;ratioP1;P1;durP2;ratioP2;P2;SDS_P1;SDS_P2;PMS_P1;PMS_P2;Temp;Humidity;BMP_temperature;BMP_pressure;BME280_temperature;BME280_humidity;BME280_pressure;Samples;Min_cycle;Max_cycle;Signal;HPM_P1;HPM_P2
2022/02/01 00:00:41;;;;;;;19.37;8.40;;;;;;;;;;5118514;28;20215;-84
2022/02/01 00:03:08;;;;;;;20.17;8.43;;;;;;;;;;5120173;28;20208;-84
2022/02/01 00:05:41;;;;;;;22.67;8.63;;;;;;;;;;5112062;28;20230;-84
2022/02/01 00:08:16;;;;;;;19.50;8.33;;;;;;;;;;5111803;28;20201;-84
2022/02/01 00:10:55;;;;;;;23.63;8.27;;;;;;;;;;5112578;28;20200;-85
2022/02/01 00:13:32;;;;;;;18.37;7.77;;;;;;;;;;5114836;28;20568;-85
2022/02/01 00:35:34;;;;;;;19.50;9.27;;;;;;;;;;5132239;28;20192;-84
2022/02/01 00:38:11;;;;;;;21.60;9.43;;;;;;;;;;5132559;28;20232;-84
2022/02/01 00:40:39;;;;;;;20.73;9.87;;;;;;;;;;5132144;28;20590;-84
2022/02/01 00:43:08;;;;;;;21.73;10.13;;;;;;;;;;5132178;27;20248;-84
2022/02/01 00:45:37;;;;;;;23.80;10.33;;;;;;;;;;5131633;28;20222;-84
2022/02/01 00:48:05;;;;;;;24.20;10.00;;;;;;;;;;5131225;28;20196;-84
2022/02/01 00:50:33;;;;;;;23.23;10.27;;;;;;;;;;5120195;28;20233;-84
2022/02/01 00:53:00;;;;;;;21.90;9.40;;;;;;;;;;5127855;27;20694;-84
2022/02/01 00:55:28;;;;;;;18.87;9.50;;;;;;;;;;5139619;27;20249;-84
2022/02/01 00:57:55;;;;;;;20.67;9.23;;;;;;;;;;5141641;27;20249;-84
2022/02/01 01:00:24;;;;;;;20.53;10.17;;;;;;;;;;5132777;27;20290;-84
2022/02/01 01:02:51;;;;;;;23.83;10.40;;;;;;;;;;5106360;27;20277;-85
2022/02/01 01:05:18;;;;;;;20.20;10.23;;;;;;;;;;5121123;27;20295;-85
2022/02/01 01:07:45;;;;;;;22.97;10.87;;;;;;;;;;5122567;27;20276;-84
2022/02/01 01:10:13;;;;;;;22.50;10.93;;;;;;;;;;5124481;27;20231;-84
2022/02/01 01:12:50;;;;;;;19.27;9.03;;;;;;;;;;5114997;28;20191;-84
2022/02/01 01:15:23;;;;;;;16.00;8.00;;;;;;;;;;5115179;28;20218;-84
2022/02/01 01:46:06;;;;;;;18.90;8.60;;;;;;;;;;4953674;29;20581;-85
2022/02/01 01:54:05;;;;;;;21.97;6.53;;;;;;;;;;4953296;29;20259;-85
2022/02/01 01:56:32;;;;;;;19.60;6.37;;;;;;;;;;4954065;29;20666;-86
2022/02/01 01:59:01;;;;;;;14.87;5.93;;;;;;;;;;4953694;29;20251;-85
2022/02/01 02:01:28;;;;;;;17.73;5.50;;;;;;;;;;4987035;28;20202;-85
2022/02/01 02:03:55;;;;;;;17.43;5.53;;;;;;;;;;4998753;28;20229;-85
2022/02/01 02:06:24;;;;;;;20.33;5.37;;;;;;;;;;4993544;28;20309;-85
2022/02/01 02:08:54;;;;;;;14.70;5.20;;;;;;;;;;5029698;28;20231;-85
2022/02/01 02:11:27;;;;;;;18.70;4.83;;;;;;;;;;5088574;28;20663;-85
2022/02/01 02:16:40;;;;;;;17.77;5.20;;;;;;;;;;5114239;28;20289;-85
2022/02/01 02:19:08;;;;;;;14.43;4.80;;;;;;;;;;5095098;28;20316;-85
2022/02/01 02:21:38;;;;;;;16.03;4.93;;;;;;;;;;5093671;28;20285;-85
2022/02/01 02:24:06;;;;;;;15.67;4.93;;;;;;;;;;5096304;28;20662;-85
2022/02/01 02:26:33;;;;;;;12.03;4.63;;;;;;;;;;5092542;28;20602;-85
2022/02/01 02:29:02;;;;;;;14.07;5.30;;;;;;;;;;5094400;28;20664;-85
2022/02/01 02:31:31;;;;;;;16.73;4.60;;;;;;;;;;5093139;28;20245;-85
2022/02/01 02:34:02;;;;;;;10.70;5.33;;;;;;;;;;5092957;28;20231;-85
2022/02/01 02:36:32;;;;;;;15.67;4.80;;;;;;;;;;5097552;28;20708;-85
2022/02/01 02:39:08;;;;;;;16.63;5.00;;;;;;;;;;5103157;28;20660;-85
2022/02/01 02:41:37;;;;;;;15.83;5.17;;;;;;;;;;5075971;28;20208;-85
2022/02/01 02:46:51;;;;;;;16.27;5.47;;;;;;;;;;5093190;28;20281;-85
2022/02/01 02:49:19;;;;;;;12.73;5.57;;;;;;;;;;5093644;28;20198;-85
2022/02/01 02:51:46;;;;;;;15.67;5.87;;;;;;;;;;5097911;28;20229;-85
2022/02/01 02:54:15;;;;;;;14.57;6.10;;;;;;;;;;5111569;28;20664;-85
2022/02/01 02:56:46;;;;;;;17.77;5.70;;;;;;;;;;5112329;28;20728;-85
2022/02/01 02:59:14;;;;;;;20.20;6.40;;;;;;;;;;5104359;28;20253;-85
2022/02/01 03:01:41;;;;;;;15.90;5.47;;;;;;;;;;5101622;28;20203;-85
2022/02/01 03:04:10;;;;;;;13.13;5.47;;;;;;;;;;5099767;28;20206;-85
2022/02/01 03:06:37;;;;;;;17.27;5.70;;;;;;;;;;5096653;28;20228;-85
2022/02/01 03:09:05;;;;;;;18.83;5.07;;;;;;;;;;5110718;28;20692;-86
2022/02/01 03:11:33;;;;;;;12.63;4.67;;;;;;;;;;5112982;28;20246;-85
2022/02/01 03:14:04;;;;;;;14.20;4.73;;;;;;;;;;5092365;28;20201;-85
2022/02/01 03:16:48;;;;;;;16.60;5.30;;;;;;;;;;5101742;28;20207;-85
2022/02/01 03:22:00;;;;;;;14.07;5.10;;;;;;;;;;5112109;28;20200;-85
2022/02/01 03:24:27;;;;;;;15.60;4.50;;;;;;;;;;5092445;28;20232;-85
2022/02/01 03:26:56;;;;;;;17.20;5.43;;;;;;;;;;5088154;28;20319;-85
2022/02/01 03:29:23;;;;;;;12.90;4.27;;;;;;;;;;5092729;28;20232;-85
2022/02/01 03:31:50;;;;;;;13.87;4.43;;;;;;;;;;5092278;28;20268;-85
2022/02/01 03:34:17;;;;;;;14.27;4.67;;;;;;;;;;5092525;28;20322;-85
2022/02/01 03:36:45;;;;;;;19.07;5.13;;;;;;;;;;5092668;28;20195;-85
2022/02/01 03:39:12;;;;;;;15.00;4.80;;;;;;;;;;5092427;28;20304;-85
2022/02/01 03:41:39;;;;;;;21.33;4.90;;;;;;;;;;5095822;28;20221;-85
2022/02/01 03:44:11;;;;;;;16.77;4.57;;;;;;;;;;5114188;28;20272;-85
2022/02/01 03:46:39;;;;;;;13.13;4.67;;;;;;;;;;5114325;28;20206;-85
2022/02/01 03:49:06;;;;;;;11.50;3.73;;;;;;;;;;5092231;28;20216;-85
2022/02/01 03:51:33;;;;;;;15.47;4.53;;;;;;;;;;5092441;28;20693;-84
2022/02/01 03:54:01;;;;;;;13.13;4.33;;;;;;;;;;5092383;28;20744;-85
2022/02/01 03:56:28;;;;;;;14.60;4.77;;;;;;;;;;5112139;28;20231;-85
2022/02/01 03:58:55;;;;;;;15.80;4.87;;;;;;;;;;5112008;28;20265;-85
2022/02/01 04:01:24;;;;;;;15.43;4.70;;;;;;;;;;5103467;28;20607;-86
2022/02/01 04:03:51;;;;;;;16.43;5.00;;;;;;;;;;5092167;28;20198;-84
2022/02/01 04:06:18;;;;;;;16.27;4.90;;;;;;;;;;5103264;28;20239;-84
2022/02/01 04:08:45;;;;;;;14.87;4.40;;;;;;;;;;5112448;28;20281;-85
2022/02/01 04:11:13;;;;;;;13.23;4.20;;;;;;;;;;5111066;28;20583;-84
2022/02/01 04:13:41;;;;;;;13.50;4.40;;;;;;;;;;5112079;28;20222;-84
2022/02/01 04:16:08;;;;;;;11.87;3.83;;;;;;;;;;5094442;28;20198;-85
2022/02/01 04:18:38;;;;;;;19.60;3.90;;;;;;;;;;5092993;28;20229;-86
2022/02/01 04:21:05;;;;;;;18.20;3.87;;;;;;;;;;5109238;28;20205;-85
2022/02/01 04:23:33;;;;;;;10.93;3.53;;;;;;;;;;5100499;28;20626;-85
2022/02/01 04:26:00;;;;;;;16.30;3.50;;;;;;;;;;5099401;28;20292;-84
2022/02/01 04:28:27;;;;;;;18.17;3.87;;;;;;;;;;5113223;28;20316;-85
2022/02/01 04:30:54;;;;;;;18.17;4.33;;;;;;;;;;5115618;28;20246;-85
2022/02/01 04:33:21;;;;;;;18.80;5.33;;;;;;;;;;5116280;28;20203;-84
2022/02/01 04:35:50;;;;;;;20.10;5.03;;;;;;;;;;5102674;28;20589;-85
2022/02/01 04:38:18;;;;;;;14.30;4.87;;;;;;;;;;5108242;28;20221;-85
2022/02/01 04:40:45;;;;;;;19.40;5.17;;;;;;;;;;5109466;28;20285;-84
2022/02/01 04:43:12;;;;;;;18.40;4.93;;;;;;;;;;5106720;28;20249;-85
2022/02/01 04:45:41;;;;;;;14.87;4.87;;;;;;;;;;5115619;28;20622;-85
2022/02/01 04:48:08;;;;;;;13.20;4.57;;;;;;;;;;5116259;28;20967;-84
2022/02/01 04:50:35;;;;;;;16.47;4.03;;;;;;;;;;5099652;28;20230;-85
2022/02/01 04:53:04;;;;;;;13.70;4.67;;;;;;;;;;5100751;28;20210;-84
2022/02/01 04:55:45;;;;;;;14.50;4.90;;;;;;;;;;5118042;28;20225;-85
2022/02/01 04:58:12;;;;;;;14.23;4.20;;;;;;;;;;5115597;28;20217;-85
2022/02/01 05:00:40;;;;;;;18.07;4.40;;;;;;;;;;5115819;28;20283;-85
2022/02/01 05:03:07;;;;;;;14.40;4.40;;;;;;;;;;5131476;27;20224;-85
2022/02/01 05:05:34;;;;;;;14.37;3.83;;;;;;;;;;5126441;27;20248;-85
2022/02/01 05:08:02;;;;;;;15.40;3.90;;;;;;;;;;5116582;27;20653;-84
2022/02/01 05:10:33;;;;;;;14.67;4.00;;;;;;;;;;5136228;27;20193;-85
2022/02/01 05:16:08;;;;;;;13.50;3.77;;;;;;;;;;5136399;27;20648;-85
2022/02/01 05:18:45;;;;;;;11.23;3.83;;;;;;;;;;5129242;27;20264;-85
2022/02/01 05:21:18;;;;;;;15.23;4.10;;;;;;;;;;5124817;27;20200;-85
2022/02/01 05:23:45;;;;;;;15.30;3.97;;;;;;;;;;5115911;28;20198;-85
2022/02/01 05:26:15;;;;;;;9.30;3.77;;;;;;;;;;5117566;28;20749;-84
2022/02/01 05:28:42;;;;;;;18.50;4.43;;;;;;;;;;5122814;28;20207;-85
2022/02/01 05:31:10;;;;;;;14.57;4.40;;;;;;;;;;5116680;27;20285;-85
2022/02/01 05:33:37;;;;;;;14.90;3.67;;;;;;;;;;5115372;28;20201;-85
2022/02/01 05:36:05;;;;;;;13.53;3.30;;;;;;;;;;5130240;27;20241;-85
2022/02/01 05:38:32;;;;;;;14.20;3.23;;;;;;;;;;5135003;27;20307;-86
2022/02/01 05:40:59;;;;;;;13.40;3.53;;;;;;;;;;5128300;27;20293;-84
2022/02/01 05:43:29;;;;;;;10.47;3.63;;;;;;;;;;5127805;27;20221;-85
2022/02/01 05:45:57;;;;;;;14.50;3.40;;;;;;;;;;5133471;27;20220;-85
2022/02/01 05:48:25;;;;;;;15.03;3.50;;;;;;;;;;5114737;28;20236;-85
2022/02/01 05:50:53;;;;;;;16.50;3.37;;;;;;;;;;5114968;28;20295;-85
2022/02/01 05:53:21;;;;;;;11.60;3.20;;;;;;;;;;5115021;28;20257;-84
2022/02/01 05:55:49;;;;;;;13.93;3.57;;;;;;;;;;5094220;28;20186;-85
2022/02/01 05:58:16;;;;;;;13.87;3.57;;;;;;;;;;5107271;28;20831;-85
2022/02/01 06:00:45;;;;;;;13.90;3.90;;;;;;;;;;5108230;28;20196;-85
2022/02/01 06:03:13;;;;;;;15.83;3.63;;;;;;;;;;5118554;28;20202;-84
2022/02/01 06:05:40;;;;;;;12.43;3.70;;;;;;;;;;5099619;28;20240;-85
2022/02/01 06:08:07;;;;;;;13.97;4.03;;;;;;;;;;5112653;28;20288;-85
2022/02/01 06:10:35;;;;;;;16.70;3.40;;;;;;;;;;5096573;28;20281;-84
2022/02/01 06:13:02;;;;;;;19.67;3.67;;;;;;;;;;5101637;28;20631;-84
2022/02/01 06:15:30;;;;;;;13.40;3.53;;;;;;;;;;5110025;28;20245;-84
2022/02/01 06:17:59;;;;;;;14.07;3.47;;;;;;;;;;5096483;28;20288;-85
2022/02/01 06:20:27;;;;;;;15.07;3.97;;;;;;;;;;5100295;28;20319;-85
2022/02/01 06:23:13;;;;;;;18.90;4.30;;;;;;;;;;5102675;28;20222;-85
2022/02/01 06:25:49;;;;;;;17.23;3.00;;;;;;;;;;5109710;28;20203;-85
2022/02/01 06:28:16;;;;;;;15.23;3.47;;;;;;;;;;5093464;28;20645;-83
2022/02/01 06:30:43;;;;;;;14.37;3.40;;;;;;;;;;5106741;28;20217;-86
2022/02/01 06:33:13;;;;;;;15.43;3.00;;;;;;;;;;5111693;28;20577;-85
2022/02/01 06:35:40;;;;;;;11.90;3.27;;;;;;;;;;5106493;28;20191;-83
2022/02/01 06:38:08;;;;;;;13.37;3.27;;;;;;;;;;5111391;28;20234;-84
2022/02/01 06:40:35;;;;;;;11.80;3.10;;;;;;;;;;5107019;28;20195;-86
2022/02/01 06:43:02;;;;;;;17.07;3.17;;;;;;;;;;5092821;28;20283;-84
2022/02/01 06:45:30;;;;;;;17.47;3.13;;;;;;;;;;5093181;28;20202;-86
2022/02/01 06:47:57;;;;;;;16.53;3.40;;;;;;;;;;5092858;28;20728;-84
2022/02/01 06:50:26;;;;;;;13.33;3.03;;;;;;;;;;5092055;28;20194;-84
2022/02/01 06:52:56;;;;;;;16.87;3.13;;;;;;;;;;5092312;28;20292;-84
2022/02/01 06:55:33;;;;;;;17.43;3.63;;;;;;;;;;5092383;28;20280;-84
2022/02/01 06:58:00;;;;;;;16.73;3.50;;;;;;;;;;5091817;28;20565;-85
2022/02/01 07:00:28;;;;;;;14.40;3.47;;;;;;;;;;5095111;28;20255;-84
2022/02/01 07:02:55;;;;;;;16.67;3.77;;;;;;;;;;5112842;28;20229;-85
2022/02/01 07:05:23;;;;;;;15.27;3.77;;;;;;;;;;5108441;28;20277;-84
2022/02/01 07:07:51;;;;;;;16.57;3.83;;;;;;;;;;5101217;28;20560;-84
2022/02/01 07:10:19;;;;;;;17.33;3.60;;;;;;;;;;5097459;28;20578;-84
2022/02/01 07:12:46;;;;;;;20.07;3.90;;;;;;;;;;5094974;28;20230;-84
2022/02/01 07:15:13;;;;;;;15.70;3.53;;;;;;;;;;5095030;28;20294;-83
2022/02/01 07:17:47;;;;;;;15.83;3.37;;;;;;;;;;5107761;28;20225;-84
2022/02/01 07:20:15;;;;;;;15.27;3.70;;;;;;;;;;5101572;28;20218;-83
2022/02/01 07:22:44;;;;;;;15.77;3.60;;;;;;;;;;5098403;28;20673;-84
2022/02/01 07:25:17;;;;;;;19.10;3.23;;;;;;;;;;5102813;28;20204;-85
2022/02/01 07:27:47;;;;;;;20.30;2.93;;;;;;;;;;5096983;28;20198;-86
2022/02/01 07:30:16;;;;;;;18.43;3.77;;;;;;;;;;5092376;28;20225;-85
2022/02/01 07:32:43;;;;;;;15.83;3.50;;;;;;;;;;5099456;28;20202;-86
2022/02/01 07:35:11;;;;;;;17.07;3.60;;;;;;;;;;5091958;28;20285;-85
2022/02/01 07:37:38;;;;;;;16.50;3.33;;;;;;;;;;5106142;28;20212;-85
2022/02/01 07:40:06;;;;;;;16.77;3.57;;;;;;;;;;5095443;28;20582;-86
2022/02/01 07:42:35;;;;;;;14.30;3.00;;;;;;;;;;5092715;28;20246;-86
2022/02/01 07:45:04;;;;;;;20.67;3.33;;;;;;;;;;5109165;28;20194;-85
2022/02/01 07:47:31;;;;;;;13.60;3.03;;;;;;;;;;5099501;28;20273;-84
2022/02/01 07:49:58;;;;;;;14.77;3.00;;;;;;;;;;5101850;28;20210;-84
2022/02/01 07:52:25;;;;;;;17.67;3.67;;;;;;;;;;5091870;28;20229;-84
2022/02/01 07:54:53;;;;;;;15.43;3.20;;;;;;;;;;5119267;27;20256;-83
2022/02/01 07:57:20;;;;;;;14.07;3.23;;;;;;;;;;5127507;27;20239;-84
2022/02/01 07:59:49;;;;;;;14.53;2.83;;;;;;;;;;5128931;28;20299;-83
2022/02/01 08:02:20;;;;;;;16.17;3.77;;;;;;;;;;5135703;27;20247;-84
2022/02/01 08:04:48;;;;;;;15.20;3.53;;;;;;;;;;5135660;27;20206;-84
2022/02/01 08:07:15;;;;;;;20.37;3.87;;;;;;;;;;5132645;27;20285;-84
2022/02/01 08:09:46;;;;;;;17.60;3.63;;;;;;;;;;5120957;27;20232;-84
2022/02/01 08:12:27;;;;;;;18.40;3.53;;;;;;;;;;5128245;27;20196;-84
2022/02/01 08:17:43;;;;;;;16.27;3.07;;;;;;;;;;5136585;27;20576;-84
2022/02/01 08:20:13;;;;;;;13.13;2.87;;;;;;;;;;5124171;27;20301;-84
2022/02/01 08:23:01;;;;;;;17.17;3.23;;;;;;;;;;5120303;27;20221;-84
2022/02/01 08:25:28;;;;;;;20.83;2.60;;;;;;;;;;5118746;27;20210;-84
2022/02/01 08:27:58;;;;;;;17.20;2.50;;;;;;;;;;5130860;27;20301;-84
2022/02/01 08:30:27;;;;;;;17.00;3.17;;;;;;;;;;5128014;27;20276;-84
2022/02/01 08:32:54;;;;;;;14.50;2.70;;;;;;;;;;5132517;27;20199;-84
2022/02/01 08:35:22;;;;;;;17.30;3.20;;;;;;;;;;5130465;27;20233;-84
2022/02/01 08:37:49;;;;;;;20.30;3.20;;;;;;;;;;5131034;27;20654;-84
2022/02/01 08:40:18;;;;;;;14.33;2.60;;;;;;;;;;5135375;27;20355;-84
2022/02/01 08:42:46;;;;;;;15.77;2.80;;;;;;;;;;5139211;27;20718;-85
2022/02/01 08:45:20;;;;;;;17.27;2.90;;;;;;;;;;5123847;27;20188;-85
2022/02/01 08:47:49;;;;;;;16.83;2.93;;;;;;;;;;5134780;27;20204;-84
2022/02/01 08:50:19;;;;;;;15.57;2.47;;;;;;;;;;5126639;27;20211;-84
2022/02/01 08:52:48;;;;;;;17.13;2.80;;;;;;;;;;5137052;27;20208;-84
2022/02/01 08:55:33;;;;;;;18.57;2.70;;;;;;;;;;5127245;27;20230;-84
2022/02/01 08:58:01;;;;;;;15.53;3.07;;;;;;;;;;5132518;27;20325;-85
2022/02/01 09:00:29;;;;;;;17.50;3.27;;;;;;;;;;5129738;27;20223;-85
2022/02/01 09:03:00;;;;;;;17.80;4.00;;;;;;;;;;5126372;27;20730;-84
2022/02/01 09:05:27;;;;;;;20.90;4.93;;;;;;;;;;5123512;27;20711;-84
2022/02/01 09:07:55;;;;;;;18.97;4.83;;;;;;;;;;5130526;27;20284;-84
2022/02/01 09:10:22;;;;;;;13.20;3.80;;;;;;;;;;5118061;27;20199;-84
2022/02/01 09:12:49;;;;;;;17.27;4.23;;;;;;;;;;5130833;27;20232;-84
2022/02/01 09:15:16;;;;;;;23.10;4.23;;;;;;;;;;5117666;27;20242;-84
2022/02/01 09:17:44;;;;;;;17.27;3.83;;;;;;;;;;5135617;27;20274;-84
2022/02/01 09:20:13;;;;;;;18.83;3.60;;;;;;;;;;5118859;27;20308;-83
2022/02/01 09:22:41;;;;;;;13.67;3.27;;;;;;;;;;5128612;27;20649;-84
2022/02/01 09:25:09;;;;;;;17.87;3.50;;;;;;;;;;5122769;27;20620;-84
2022/02/01 09:27:36;;;;;;;12.97;3.10;;;;;;;;;;5134600;27;20282;-84
2022/02/01 09:30:04;;;;;;;21.37;3.43;;;;;;;;;;5123543;27;20278;-84
2022/02/01 09:32:31;;;;;;;13.43;3.03;;;;;;;;;;5120664;27;20272;-84
2022/02/01 09:34:59;;;;;;;17.40;3.10;;;;;;;;;;5114630;27;20662;-84
2022/02/01 09:37:28;;;;;;;17.87;2.90;;;;;;;;;;5124879;27;20228;-83
2022/02/01 09:39:55;;;;;;;14.80;2.83;;;;;;;;;;5122375;27;20787;-84
2022/02/01 09:42:26;;;;;;;15.03;2.83;;;;;;;;;;5127139;27;20259;-84
2022/02/01 09:44:53;;;;;;;14.00;2.53;;;;;;;;;;5134616;27;20208;-83
2022/02/01 09:47:31;;;;;;;17.33;3.40;;;;;;;;;;5124051;27;20201;-84
2022/02/01 09:49:58;;;;;;;17.37;2.90;;;;;;;;;;5118544;27;20419;-84
2022/02/01 09:52:25;;;;;;;13.07;2.57;;;;;;;;;;5097199;28;20229;-84
2022/02/01 09:54:54;;;;;;;12.63;2.97;;;;;;;;;;5116206;27;20628;-84
2022/02/01 09:57:22;;;;;;;17.83;3.10;;;;;;;;;;5114289;27;20236;-84
2022/02/01 09:59:54;;;;;;;14.57;2.83;;;;;;;;;;5130746;27;20217;-84
2022/02/01 10:02:22;;;;;;;13.37;2.67;;;;;;;;;;5121395;27;20593;-84
2022/02/01 10:04:51;;;;;;;18.53;2.83;;;;;;;;;;5122715;27;20235;-84
2022/02/01 10:07:19;;;;;;;17.63;3.10;;;;;;;;;;5114231;28;20201;-85
2022/02/01 10:09:57;;;;;;;15.40;2.87;;;;;;;;;;5123469;27;20626;-85
2022/02/01 10:12:26;;;;;;;13.70;3.83;;;;;;;;;;5111209;27;20213;-85
2022/02/01 10:14:57;;;;;;;18.33;3.30;;;;;;;;;;5122486;27;20201;-84
2022/02/01 10:17:28;;;;;;;22.87;3.00;;;;;;;;;;5120485;27;20227;-84
2022/02/01 10:19:55;;;;;;;16.67;2.57;;;;;;;;;;5119849;27;20311;-84
2022/02/01 10:22:30;;;;;;;13.07;2.57;;;;;;;;;;5128069;27;20288;-84
2022/02/01 10:24:59;;;;;;;16.83;2.70;;;;;;;;;;5113264;27;20209;-84
2022/02/01 10:27:29;;;;;;;13.97;2.70;;;;;;;;;;5119690;27;20193;-85
2022/02/01 10:30:03;;;;;;;17.90;2.70;;;;;;;;;;5123459;27;20280;-84
2022/02/01 10:32:44;;;;;;;12.30;2.77;;;;;;;;;;5114792;27;20210;-84
2022/02/01 10:35:22;;;;;;;13.43;2.47;;;;;;;;;;5092869;28;20665;-84
2022/02/01 10:37:57;;;;;;;17.63;2.73;;;;;;;;;;5092878;28;20208;-84
2022/02/01 10:40:36;;;;;;;14.47;2.70;;;;;;;;;;5121637;27;20722;-84
2022/02/01 10:43:04;;;;;;;18.37;2.63;;;;;;;;;;5132790;27;20213;-84
2022/02/01 10:45:33;;;;;;;13.80;3.10;;;;;;;;;;5115058;27;20205;-84
2022/02/01 10:48:00;;;;;;;17.67;2.77;;;;;;;;;;5115168;27;20262;-84
2022/02/01 10:50:29;;;;;;;14.23;2.97;;;;;;;;;;5131704;27;20297;-85
2022/02/01 10:52:56;;;;;;;15.80;2.50;;;;;;;;;;5114408;28;20198;-85
2022/02/01 10:55:23;;;;;;;15.90;2.37;;;;;;;;;;5112164;28;20309;-84
2022/02/01 10:57:52;;;;;;;17.73;2.80;;;;;;;;;;5113997;27;20210;-84
2022/02/01 11:00:20;;;;;;;12.07;2.23;;;;;;;;;;5121954;27;20221;-84
2022/02/01 11:02:48;;;;;;;16.03;2.60;;;;;;;;;;5133325;27;20207;-84
2022/02/01 11:05:17;;;;;;;16.57;2.67;;;;;;;;;;5129134;27;20221;-84
2022/02/01 11:07:44;;;;;;;14.03;3.20;;;;;;;;;;5119962;27;20574;-83
2022/02/01 11:10:12;;;;;;;17.73;2.53;;;;;;;;;;5115265;27;20292;-84
2022/02/01 11:12:40;;;;;;;19.40;2.70;;;;;;;;;;5113140;28;20288;-83
2022/02/01 11:15:18;;;;;;;15.23;2.70;;;;;;;;;;5113255;27;20592;-84
2022/02/01 11:17:47;;;;;;;20.07;3.33;;;;;;;;;;5112869;28;20244;-84
2022/02/01 11:20:14;;;;;;;15.33;2.53;;;;;;;;;;5127409;27;20261;-84
2022/02/01 11:22:43;;;;;;;16.43;2.90;;;;;;;;;;5114573;28;20225;-84
2022/02/01 11:25:20;;;;;;;19.47;3.13;;;;;;;;;;5120964;27;20216;-83
2022/02/01 11:27:58;;;;;;;12.63;2.87;;;;;;;;;;5118321;27;20242;-85
2022/02/01 11:30:34;;;;;;;13.00;2.30;;;;;;;;;;5114354;27;20201;-83
2022/02/01 11:33:02;;;;;;;18.03;2.40;;;;;;;;;;5125089;27;20283;-83
2022/02/01 11:35:29;;;;;;;12.40;2.63;;;;;;;;;;5116573;27;20240;-83
2022/02/01 11:38:03;;;;;;;13.17;2.50;;;;;;;;;;5125988;27;20222;-83
2022/02/01 11:40:35;;;;;;;16.90;2.80;;;;;;;;;;5121532;27;20292;-83
2022/02/01 11:43:05;;;;;;;16.00;2.53;;;;;;;;;;5126546;27;20306;-83
2022/02/01 11:45:36;;;;;;;16.33;2.90;;;;;;;;;;5112809;27;20277;-83
2022/02/01 11:48:04;;;;;;;15.77;2.87;;;;;;;;;;5123719;27;20224;-83
2022/02/01 11:50:45;;;;;;;19.37;3.30;;;;;;;;;;5113825;27;20281;-83
2022/02/01 11:53:19;;;;;;;14.20;3.40;;;;;;;;;;5118399;28;20279;-83
2022/02/01 11:55:47;;;;;;;19.27;2.97;;;;;;;;;;5099519;28;20265;-83
2022/02/01 11:58:14;;;;;;;16.50;3.03;;;;;;;;;;5090544;28;20724;-82
2022/02/01 12:00:43;;;;;;;13.60;2.80;;;;;;;;;;5102605;28;20240;-83
2022/02/01 12:03:16;;;;;;;19.00;2.90;;;;;;;;;;5107681;28;20677;-83
2022/02/01 12:05:43;;;;;;;13.03;2.83;;;;;;;;;;5100137;28;20684;-83
2022/02/01 12:08:12;;;;;;;15.03;3.33;;;;;;;;;;5099682;28;20229;-83
2022/02/01 12:10:41;;;;;;;11.90;2.73;;;;;;;;;;5092029;28;20245;-83
2022/02/01 12:13:08;;;;;;;14.83;3.10;;;;;;;;;;5105495;28;20205;-83
2022/02/01 12:15:38;;;;;;;18.70;3.20;;;;;;;;;;5112440;28;20233;-83
2022/02/01 12:18:19;;;;;;;17.43;3.43;;;;;;;;;;5103273;28;20226;-84
2022/02/01 12:20:46;;;;;;;19.97;3.23;;;;;;;;;;5098747;28;20265;-85
2022/02/01 12:23:20;;;;;;;16.03;3.67;;;;;;;;;;5093884;28;20725;-87
2022/02/01 12:25:47;;;;;;;19.17;3.30;;;;;;;;;;5090152;28;20229;-87
2022/02/01 12:28:16;;;;;;;19.23;3.70;;;;;;;;;;5091742;28;20203;-85
2022/02/01 12:30:43;;;;;;;18.97;4.10;;;;;;;;;;5097710;28;20206;-85
2022/02/01 12:33:18;;;;;;;15.27;3.70;;;;;;;;;;5085664;28;20202;-86
2022/02/01 12:35:45;;;;;;;16.20;3.50;;;;;;;;;;5093045;28;20246;-86
2022/02/01 12:38:17;;;;;;;22.50;3.90;;;;;;;;;;5102636;28;20222;-85
2022/02/01 12:40:45;;;;;;;19.87;4.10;;;;;;;;;;5102652;28;20226;-85
2022/02/01 12:43:16;;;;;;;14.60;3.80;;;;;;;;;;5104916;28;20500;-86
2022/02/01 12:45:51;;;;;;;15.67;4.27;;;;;;;;;;5085217;28;20195;-86
2022/02/01 12:48:20;;;;;;;19.03;4.30;;;;;;;;;;5096866;28;20193;-87
2022/02/01 12:50:55;;;;;;;22.90;4.23;;;;;;;;;;5114798;28;20280;-86
2022/02/01 12:53:22;;;;;;;18.23;3.93;;;;;;;;;;5108891;28;20240;-85
2022/02/01 12:55:49;;;;;;;22.03;3.33;;;;;;;;;;5099432;28;20276;-85
2022/02/01 12:58:17;;;;;;;19.80;4.60;;;;;;;;;;5107838;28;20274;-85
2022/02/01 13:00:49;;;;;;;22.80;4.20;;;;;;;;;;5113974;28;20275;-85
2022/02/01 13:03:16;;;;;;;21.30;5.13;;;;;;;;;;5114832;28;20232;-85
2022/02/01 13:05:45;;;;;;;22.23;5.10;;;;;;;;;;5114717;28;20228;-85
2022/02/01 13:08:35;;;;;;;19.23;5.20;;;;;;;;;;5114611;28;20201;-86
2022/02/01 13:16:40;;;;;;;16.90;4.20;;;;;;;;;;5099362;28;20261;-84
2022/02/01 13:21:54;;;;;;;18.67;4.60;;;;;;;;;;5114416;28;20224;-85
2022/02/01 13:24:30;;;;;;;17.70;4.43;;;;;;;;;;5113756;28;20240;-85
2022/02/01 13:26:57;;;;;;;22.43;4.33;;;;;;;;;;5113883;28;20193;-84
2022/02/01 13:29:24;;;;;;;16.10;4.27;;;;;;;;;;5111672;28;20286;-85
2022/02/01 13:31:53;;;;;;;19.13;4.27;;;;;;;;;;5114040;28;20680;-84
2022/02/01 13:34:26;;;;;;;20.40;4.40;;;;;;;;;;5113710;28;20194;-85
2022/02/01 13:36:57;;;;;;;19.97;4.03;;;;;;;;;;5114086;28;20322;-84
2022/02/01 13:39:25;;;;;;;18.67;4.17;;;;;;;;;;5113368;28;20254;-85
2022/02/01 13:41:58;;;;;;;20.97;4.40;;;;;;;;;;5113264;28;20684;-84
2022/02/01 13:44:26;;;;;;;15.73;3.27;;;;;;;;;;5113063;28;20225;-85
2022/02/01 13:47:00;;;;;;;14.93;3.60;;;;;;;;;;5108202;28;20277;-84
2022/02/01 13:49:28;;;;;;;21.43;4.63;;;;;;;;;;5112078;28;20290;-84
2022/02/01 13:51:56;;;;;;;16.97;4.03;;;;;;;;;;5113569;28;20225;-84
2022/02/01 13:54:25;;;;;;;13.30;3.43;;;;;;;;;;5118441;27;20253;-84
2022/02/01 13:56:54;;;;;;;16.63;3.43;;;;;;;;;;5124326;27;20201;-84
2022/02/01 13:59:24;;;;;;;16.70;3.40;;;;;;;;;;5121766;27;20193;-84
2022/02/01 14:02:01;;;;;;;17.67;3.73;;;;;;;;;;5118419;27;20216;-84
2022/02/01 14:04:34;;;;;;;16.27;3.13;;;;;;;;;;5124243;27;20270;-85
2022/02/01 14:07:10;;;;;;;12.70;3.27;;;;;;;;;;5128242;27;20208;-85
2022/02/01 14:32:00;;;;;;;16.90;4.37;;;;;;;;;;5100937;28;20197;-84
2022/02/01 14:32:19;;;;;;;19.30;4.23;;;;;;;;;;5122973;27;20675;-84
2022/02/01 14:34:47;;;;;;;15.13;3.87;;;;;;;;;;5132282;27;20197;-84
2022/02/01 14:37:18;;;;;;;15.13;3.83;;;;;;;;;;5131863;27;20205;-84
2022/02/01 14:43:21;;;;;;;12.80;3.23;;;;;;;;;;5087740;28;20230;-85
2022/02/01 14:45:48;;;;;;;11.70;3.50;;;;;;;;;;5081413;28;20206;-85
2022/02/01 14:48:15;;;;;;;12.10;3.00;;;;;;;;;;5073812;28;20227;-84
2022/02/01 14:50:42;;;;;;;11.30;3.13;;;;;;;;;;5079066;28;20241;-85
2022/02/01 14:53:09;;;;;;;12.93;4.23;;;;;;;;;;5061139;28;20662;-85
2022/02/01 14:55:46;;;;;;;11.40;3.70;;;;;;;;;;5076832;28;20262;-84
2022/02/01 15:03:54;;;;;;;4.93;2.17;;;;;;;;;;5075312;28;20217;-85
2022/02/01 15:12:05;;;;;;;7.30;2.53;;;;;;;;;;5079851;28;20256;-85
2022/02/01 15:14:32;;;;;;;9.70;6.00;;;;;;;;;;5089028;28;20273;-84
2022/02/01 15:16:59;;;;;;;13.07;8.30;;;;;;;;;;5089052;28;20640;-84
2022/02/01 15:19:27;;;;;;;9.53;5.10;;;;;;;;;;5094908;28;20198;-84
2022/02/01 15:21:54;;;;;;;9.23;3.77;;;;;;;;;;5119669;27;20217;-85
2022/02/01 15:24:21;;;;;;;7.70;2.60;;;;;;;;;;5132474;27;20225;-84
2022/02/01 15:26:49;;;;;;;7.90;2.93;;;;;;;;;;5124248;27;20246;-85
2022/02/01 15:29:18;;;;;;;9.03;3.87;;;;;;;;;;5112895;27;20202;-84
2022/02/01 15:31:45;;;;;;;7.50;2.93;;;;;;;;;;5127224;27;20276;-84
2022/02/01 15:34:13;;;;;;;6.47;2.50;;;;;;;;;;5120806;27;20281;-84
2022/02/01 15:36:41;;;;;;;8.27;3.17;;;;;;;;;;5132247;27;20220;-84
2022/02/01 15:58:45;;;;;;;6.47;1.50;;;;;;;;;;5077409;28;20198;-84
2022/02/01 16:01:17;;;;;;;6.80;1.77;;;;;;;;;;5071781;28;20214;-85
2022/02/01 16:03:46;;;;;;;9.53;1.57;;;;;;;;;;5070515;28;21023;-84
2022/02/01 16:06:13;;;;;;;7.17;1.70;;;;;;;;;;5068394;28;20202;-84
2022/02/01 16:08:43;;;;;;;8.13;1.93;;;;;;;;;;5078383;28;20210;-85
2022/02/01 16:11:13;;;;;;;7.93;1.93;;;;;;;;;;5074608;28;20764;-85
2022/02/01 16:13:42;;;;;;;7.43;1.83;;;;;;;;;;5076559;28;20214;-84
2022/02/01 16:16:10;;;;;;;9.23;2.20;;;;;;;;;;5068615;28;20187;-85
2022/02/01 16:18:40;;;;;;;6.20;1.90;;;;;;;;;;5098309;28;20200;-84
2022/02/01 16:21:08;;;;;;;12.53;2.70;;;;;;;;;;5112886;28;20669;-85
2022/02/01 16:23:36;;;;;;;6.93;2.40;;;;;;;;;;5130713;27;20280;-84
2022/02/01 16:26:03;;;;;;;10.97;2.50;;;;;;;;;;5115204;27;20297;-84
2022/02/01 16:28:30;;;;;;;9.70;2.80;;;;;;;;;;5122112;27;20779;-85
2022/02/01 16:30:57;;;;;;;9.57;2.53;;;;;;;;;;5117065;27;20252;-85
2022/02/01 16:33:25;;;;;;;9.27;2.30;;;;;;;;;;5115346;28;20278;-87
2022/02/01 16:35:54;;;;;;;7.73;2.33;;;;;;;;;;5122818;27;20229;-85
2022/02/01 16:38:21;;;;;;;10.97;2.80;;;;;;;;;;5112084;27;20250;-86
2022/02/01 16:40:49;;;;;;;12.63;2.63;;;;;;;;;;5127650;27;20197;-86
2022/02/01 16:43:18;;;;;;;9.33;2.10;;;;;;;;;;5124032;27;20705;-86
2022/02/01 16:45:46;;;;;;;13.70;2.53;;;;;;;;;;5115752;27;20262;-87
2022/02/01 16:48:16;;;;;;;11.40;2.70;;;;;;;;;;5128880;27;20193;-86
2022/02/01 16:50:43;;;;;;;11.43;3.03;;;;;;;;;;5121543;27;20198;-86
2022/02/01 16:53:16;;;;;;;14.00;3.03;;;;;;;;;;5122846;27;20392;-85